Time;durP1;ratioP1;P1;durP2;ratioP2;P2;SDS_P1;SDS_P2;PMS_P1;PMS_P2;Temp;Humidity;BMP_temperature;BMP_pressure;BME280_temperature;BME280_humidity;BME280_pressure;Samples;Min_cycle;Max_cycle;Signal;HPM_P1;HPM_P2
2022/01/15 00:00:27;;;;;;;;;;;6.70;99.90;;;;;;5130812;27;19927;-56
2022/01/15 00:02:53;;;;;;;;;;;6.90;99.90;;;;;;5127176;27;19927;-59
2022/01/15 00:05:18;;;;;;;;;;;6.70;99.90;;;;;;5131112;27;19934;-58
2022/01/15 00:07:47;;;;;;;;;;;6.80;99.90;;;;;;5140788;27;19927;-60
2022/01/15 00:10:13;;;;;;;;;;;6.70;99.90;;;;;;5132106;27;20093;-58
2022/01/15 00:12:40;;;;;;;;;;;6.70;99.90;;;;;;5142873;27;20042;-57
2022/01/15 00:15:13;;;;;;;;;;;6.70;99.90;;;;;;5131695;27;19938;-57
2022/01/15 00:20:10;;;;;;;;;;;7.00;99.90;;;;;;5139525;27;20368;-56
2022/01/15 00:22:35;;;;;;;;;;;6.70;99.90;;;;;;5128929;27;20289;-57
2022/01/15 00:25:01;;;;;;;;;;;6.60;99.90;;;;;;5137688;27;19937;-57
2022/01/15 00:27:26;;;;;;;;;;;6.70;99.90;;;;;;5138376;27;20006;-56
2022/01/15 00:29:52;;;;;;;;;;;6.60;99.90;;;;;;5136697;27;20020;-56
2022/01/15 00:32:18;;;;;;;;;;;6.70;99.90;;;;;;5130946;27;19931;-56
2022/01/15 00:34:43;;;;;;;;;;;6.70;99.90;;;;;;5141172;27;19967;-60
2022/01/15 00:37:09;;;;;;;;;;;6.70;99.90;;;;;;5142163;27;20353;-56
2022/01/15 00:39:34;;;;;;;;;;;7.00;99.90;;;;;;5132189;27;19927;-56
2022/01/15 00:42:00;;;;;;;;;;;6.70;99.90;;;;;;5136352;27;19931;-56
2022/01/15 00:44:25;;;;;;;;;;;6.70;99.90;;;;;;5140566;27;19931;-59
2022/01/15 00:46:51;;;;;;;;;;;6.80;99.90;;;;;;5131568;27;19927;-59
2022/01/15 00:49:17;;;;;;;;;;;6.70;99.90;;;;;;5142303;27;20482;-58
2022/01/15 00:51:42;;;;;;;;;;;6.70;99.90;;;;;;5137764;27;19978;-60
2022/01/15 00:54:08;;;;;;;;;;;6.70;99.90;;;;;;5135128;27;19957;-59
2022/01/15 00:56:34;;;;;;;;;;;6.70;99.90;;;;;;5144790;27;19927;-60
2022/01/15 00:58:59;;;;;;;;;;;6.70;99.90;;;;;;5126716;28;19967;-60
2022/01/15 01:01:25;;;;;;;;;;;6.70;99.90;;;;;;5134949;27;20417;-55
2022/01/15 01:03:50;;;;;;;;;;;6.80;99.90;;;;;;5146924;27;19927;-56
2022/01/15 01:06:17;;;;;;;;;;;6.70;99.90;;;;;;5134116;27;19954;-56
2022/01/15 01:08:42;;;;;;;;;;;6.70;99.90;;;;;;5144948;27;20057;-58
2022/01/15 01:11:14;;;;;;;;;;;6.70;99.90;;;;;;5133350;27;20010;-56
2022/01/15 01:24:25;;;;;;;;;;;6.70;99.90;;;;;;5141919;27;19951;-56
2022/01/15 01:32:49;;;;;;;;;;;6.70;99.90;;;;;;5147894;27;20368;-56
2022/01/15 01:34:42;;;;;;;;;;;6.70;99.90;;;;;;5126550;27;19937;-55
2022/01/15 01:39:50;;;;;;;;;;;6.70;99.90;;;;;;5135589;27;19979;-57
2022/01/15 01:44:58;;;;;;;;;;;6.70;99.90;;;;;;5134395;27;20385;-56
2022/01/15 01:47:35;;;;;;;;;;;6.60;99.90;;;;;;5144969;27;20004;-55
2022/01/15 01:50:00;;;;;;;;;;;6.60;99.90;;;;;;5143362;27;20188;-56
2022/01/15 01:52:26;;;;;;;;;;;6.70;99.90;;;;;;5136259;27;19976;-56
2022/01/15 01:54:52;;;;;;;;;;;6.60;99.90;;;;;;5148363;27;19933;-56
2022/01/15 01:57:18;;;;;;;;;;;6.60;99.90;;;;;;5137950;27;19927;-56
2022/01/15 01:59:44;;;;;;;;;;;6.80;99.90;;;;;;5141670;27;19927;-56
2022/01/15 02:02:09;;;;;;;;;;;6.80;99.90;;;;;;5144141;27;19927;-57
2022/01/15 02:04:35;;;;;;;;;;;6.60;99.90;;;;;;5150822;27;20338;-56
2022/01/15 02:07:00;;;;;;;;;;;7.00;99.90;;;;;;5134736;27;19934;-56
2022/01/15 02:09:26;;;;;;;;;;;6.60;99.90;;;;;;5142959;27;19931;-55
2022/01/15 02:11:52;;;;;;;;;;;6.60;99.90;;;;;;5140533;27;20005;-58
2022/01/15 02:14:24;;;;;;;;;;;6.60;99.90;;;;;;5133603;27;20405;-59
2022/01/15 02:16:50;;;;;;;;;;;6.60;99.90;;;;;;5147172;27;19980;-56
2022/01/15 02:19:15;;;;;;;;;;;6.60;99.90;;;;;;5137375;27;19931;-60
2022/01/15 02:24:12;;;;;;;;;;;6.60;99.90;;;;;;5140730;27;19986;-58
2022/01/15 02:26:39;;;;;;;;;;;6.60;99.90;;;;;;5147172;27;19974;-57
2022/01/15 02:29:07;;;;;;;;;;;6.90;99.90;;;;;;5134608;27;19931;-55
2022/01/15 02:31:33;;;;;;;;;;;6.60;99.90;;;;;;5142970;27;19980;-56
2022/01/15 02:33:59;;;;;;;;;;;6.60;99.90;;;;;;5142710;27;19934;-56
2022/01/15 02:36:26;;;;;;;;;;;6.60;99.90;;;;;;5133156;27;20451;-56
2022/01/15 02:38:52;;;;;;;;;;;6.60;99.90;;;;;;5147413;27;20323;-59
2022/01/15 02:41:28;;;;;;;;;;;6.60;99.90;;;;;;5143730;27;20261;-57
2022/01/15 02:43:54;;;;;;;;;;;6.50;99.90;;;;;;5130777;27;20225;-56
2022/01/15 02:46:34;;;;;;;;;;;7.20;99.90;;;;;;5139324;27;19927;-58
2022/01/15 02:49:02;;;;;;;;;;;6.50;99.90;;;;;;5135795;27;20047;-56
2022/01/15 02:51:33;;;;;;;;;;;6.40;99.90;;;;;;5137145;27;20376;-56
2022/01/15 02:53:59;;;;;;;;;;;6.40;99.90;;;;;;5138612;27;19927;-56
2022/01/15 02:56:29;;;;;;;;;;;6.40;99.90;;;;;;5144859;27;19927;-56
2022/01/15 02:58:55;;;;;;;;;;;6.40;99.90;;;;;;5133632;27;20384;-56
2022/01/15 03:01:21;;;;;;;;;;;6.50;99.90;;;;;;5137020;27;19927;-56
2022/01/15 03:03:47;;;;;;;;;;;6.40;99.90;;;;;;5150624;27;19927;-55
2022/01/15 03:06:14;;;;;;;;;;;6.40;99.90;;;;;;5134525;27;20399;-55
2022/01/15 03:08:40;;;;;;;;;;;6.60;99.90;;;;;;5145971;27;19927;-55
2022/01/15 03:11:07;;;;;;;;;;;6.60;99.90;;;;;;5134557;27;20013;-55
2022/01/15 03:13:33;;;;;;;;;;;6.40;99.90;;;;;;5144093;27;20015;-55
2022/01/15 03:15:58;;;;;;;;;;;7.00;99.90;;;;;;5142014;27;19927;-56
2022/01/15 03:18:24;;;;;;;;;;;6.50;99.90;;;;;;5134079;27;19934;-56
2022/01/15 03:20:50;;;;;;;;;;;6.40;99.90;;;;;;5146513;27;20037;-56
2022/01/15 03:23:15;;;;;;;;;;;6.40;99.90;;;;;;5129641;27;19931;-56
2022/01/15 03:25:41;;;;;;;;;;;6.50;99.90;;;;;;5136548;27;19927;-56
2022/01/15 03:28:06;;;;;;;;;;;6.50;99.90;;;;;;5142544;27;19922;-56
2022/01/15 03:30:32;;;;;;;;;;;6.40;99.90;;;;;;5133662;27;20301;-56
2022/01/15 03:32:58;;;;;;;;;;;6.60;99.90;;;;;;5133580;27;20007;-55
2022/01/15 03:35:23;;;;;;;;;;;6.40;99.90;;;;;;5143088;27;20017;-58
2022/01/15 03:37:49;;;;;;;;;;;6.40;99.90;;;;;;5139643;27;19926;-59
2022/01/15 03:40:15;;;;;;;;;;;6.40;99.90;;;;;;5145608;27;20432;-60
2022/01/15 03:42:41;;;;;;;;;;;6.40;99.90;;;;;;5133282;27;19935;-58
2022/01/15 03:45:07;;;;;;;;;;;6.40;99.90;;;;;;5144877;27;20289;-56
2022/01/15 03:47:32;;;;;;;;;;;6.40;99.90;;;;;;5137501;27;19927;-56
2022/01/15 03:49:58;;;;;;;;;;;6.40;99.90;;;;;;5136435;27;19975;-58
2022/01/15 03:52:24;;;;;;;;;;;6.50;99.90;;;;;;5143510;27;20277;-60
2022/01/15 03:54:50;;;;;;;;;;;6.40;99.90;;;;;;5132458;27;20389;-59
2022/01/15 03:57:15;;;;;;;;;;;6.40;99.90;;;;;;5143141;27;19927;-57
2022/01/15 03:59:41;;;;;;;;;;;6.40;99.90;;;;;;5137041;27;20044;-60
2022/01/15 04:02:07;;;;;;;;;;;6.40;99.90;;;;;;5136015;27;19927;-57
2022/01/15 04:04:32;;;;;;;;;;;6.40;99.90;;;;;;5129607;27;20345;-56
2022/01/15 04:06:58;;;;;;;;;;;6.40;99.90;;;;;;5133994;27;20382;-61
2022/01/15 04:09:24;;;;;;;;;;;7.00;99.90;;;;;;5135599;27;19934;-62
2022/01/15 04:11:49;;;;;;;;;;;6.50;99.90;;;;;;5139043;27;19927;-63
2022/01/15 04:14:15;;;;;;;;;;;6.70;99.90;;;;;;5131643;27;19935;-63
2022/01/15 04:16:40;;;;;;;;;;;6.50;99.90;;;;;;5144169;27;19934;-61
2022/01/15 04:19:07;;;;;;;;;;;6.30;99.90;;;;;;5128047;27;20389;-66
2022/01/15 04:21:33;;;;;;;;;;;6.30;99.90;;;;;;5136886;27;19934;-66
2022/01/15 04:23:59;;;;;;;;;;;6.30;99.90;;;;;;5139142;27;19976;-65
2022/01/15 04:26:26;;;;;;;;;;;6.40;99.90;;;;;;5133124;27;19927;-67
2022/01/15 04:28:55;;;;;;;;;;;6.40;99.90;;;;;;5145338;27;20376;-65
2022/01/15 04:31:21;;;;;;;;;;;6.40;99.90;;;;;;5128027;27;19973;-65
2022/01/15 04:33:47;;;;;;;;;;;6.40;99.90;;;;;;5138876;27;19931;-60
2022/01/15 04:36:13;;;;;;;;;;;6.40;99.90;;;;;;5134914;27;19928;-57
2022/01/15 04:38:39;;;;;;;;;;;6.30;99.90;;;;;;5145246;27;20464;-56
2022/01/15 04:41:06;;;;;;;;;;;6.30;99.90;;;;;;5141328;27;19931;-56
2022/01/15 04:43:31;;;;;;;;;;;6.40;99.90;;;;;;5136887;27;19972;-56
2022/01/15 04:45:57;;;;;;;;;;;6.40;99.90;;;;;;5137378;27;19939;-56
2022/01/15 04:48:23;;;;;;;;;;;6.40;99.90;;;;;;5142913;27;20247;-56
2022/01/15 04:50:48;;;;;;;;;;;6.40;99.90;;;;;;5132361;27;19935;-56
2022/01/15 04:53:14;;;;;;;;;;;6.40;99.90;;;;;;5147368;27;20023;-56
2022/01/15 04:55:40;;;;;;;;;;;6.40;99.90;;;;;;5141512;27;20815;-56
2022/01/15 04:58:06;;;;;;;;;;;6.50;99.90;;;;;;5139832;27;19962;-58
2022/01/15 05:00:32;;;;;;;;;;;6.30;99.90;;;;;;5149377;27;19927;-56
2022/01/15 05:02:58;;;;;;;;;;;6.30;99.90;;;;;;5133125;27;19927;-56
2022/01/15 05:05:25;;;;;;;;;;;6.50;99.90;;;;;;5139126;27;20521;-56
2022/01/15 05:07:52;;;;;;;;;;;6.40;99.90;;;;;;5147715;27;19927;-57
2022/01/15 05:10:20;;;;;;;;;;;6.30;99.90;;;;;;5137726;27;20296;-55
2022/01/15 05:12:48;;;;;;;;;;;6.30;99.90;;;;;;5150294;27;20638;-55
2022/01/15 05:15:14;;;;;;;;;;;6.30;99.90;;;;;;5146746;27;19987;-57
2022/01/15 05:17:40;;;;;;;;;;;6.30;99.90;;;;;;5141272;27;19931;-57
2022/01/15 05:20:07;;;;;;;;;;;6.20;99.90;;;;;;5139495;27;19954;-55
2022/01/15 05:22:33;;;;;;;;;;;6.20;99.90;;;;;;5148395;27;19931;-57
2022/01/15 05:24:59;;;;;;;;;;;6.20;99.90;;;;;;5138744;27;20491;-55
2022/01/15 05:27:25;;;;;;;;;;;6.30;99.90;;;;;;5137791;27;19932;-56
2022/01/15 05:29:51;;;;;;;;;;;6.20;99.90;;;;;;5139754;27;19923;-55
2022/01/15 05:32:23;;;;;;;;;;;6.20;99.90;;;;;;5130846;27;19938;-57
2022/01/15 05:34:49;;;;;;;;;;;6.20;99.90;;;;;;5148675;27;20006;-56
2022/01/15 05:37:15;;;;;;;;;;;6.20;99.90;;;;;;5137507;27;19927;-55
2022/01/15 05:39:40;;;;;;;;;;;6.20;99.90;;;;;;5148507;27;20000;-56
2022/01/15 05:42:06;;;;;;;;;;;6.20;99.90;;;;;;5138967;27;20362;-56
2022/01/15 05:44:32;;;;;;;;;;;6.20;99.90;;;;;;5147131;27;19966;-56
2022/01/15 05:46:58;;;;;;;;;;;6.20;99.90;;;;;;5135168;27;19927;-56
2022/01/15 05:49:23;;;;;;;;;;;6.20;99.90;;;;;;5144845;27;19933;-56
2022/01/15 05:51:51;;;;;;;;;;;6.20;99.90;;;;;;5141801;27;20442;-56
2022/01/15 05:54:17;;;;;;;;;;;6.20;99.90;;;;;;5137826;27;19928;-55
2022/01/15 05:56:43;;;;;;;;;;;6.20;99.90;;;;;;5147569;27;19927;-59
2022/01/15 05:59:08;;;;;;;;;;;6.20;99.90;;;;;;5136167;27;19933;-55
2022/01/15 06:01:35;;;;;;;;;;;6.20;99.90;;;;;;5143536;27;20288;-56
2022/01/15 06:04:00;;;;;;;;;;;6.30;99.90;;;;;;5131440;27;20365;-57
2022/01/15 06:06:26;;;;;;;;;;;6.20;99.90;;;;;;5142195;27;19928;-56
2022/01/15 06:08:52;;;;;;;;;;;6.30;99.90;;;;;;5148491;27;20459;-56
2022/01/15 06:11:18;;;;;;;;;;;6.20;99.90;;;;;;5137111;27;19927;-55
2022/01/15 06:13:44;;;;;;;;;;;6.20;99.90;;;;;;5146411;27;19926;-55
2022/01/15 06:16:10;;;;;;;;;;;6.20;99.90;;;;;;5128450;27;20292;-56
2022/01/15 06:18:35;;;;;;;;;;;6.20;99.90;;;;;;5148467;27;19927;-56
2022/01/15 06:21:01;;;;;;;;;;;6.10;99.90;;;;;;5134585;27;19972;-57
2022/01/15 06:23:26;;;;;;;;;;;6.10;99.90;;;;;;5143950;27;19928;-57
2022/01/15 06:25:52;;;;;;;;;;;6.10;99.90;;;;;;5137807;27;19937;-59
2022/01/15 06:28:17;;;;;;;;;;;6.10;99.90;;;;;;5145805;27;20330;-58
2022/01/15 06:30:43;;;;;;;;;;;6.10;99.90;;;;;;5133466;27;19923;-57
2022/01/15 06:33:08;;;;;;;;;;;6.10;99.90;;;;;;5135020;27;19979;-61
2022/01/15 06:35:34;;;;;;;;;;;6.10;99.90;;;;;;5142659;27;20282;-63
2022/01/15 06:37:59;;;;;;;;;;;6.10;99.90;;;;;;5142844;27;20356;-60
2022/01/15 06:40:26;;;;;;;;;;;6.20;99.90;;;;;;5147272;27;19972;-59
2022/01/15 06:42:52;;;;;;;;;;;6.20;99.90;;;;;;5131244;27;19927;-63
2022/01/15 06:45:17;;;;;;;;;;;6.10;99.90;;;;;;5135111;27;19961;-60
2022/01/15 06:47:43;;;;;;;;;;;6.20;99.90;;;;;;5140901;27;19927;-61
2022/01/15 06:50:09;;;;;;;;;;;6.40;99.90;;;;;;5143708;27;19927;-56
2022/01/15 06:52:35;;;;;;;;;;;6.20;99.90;;;;;;5132238;27;20377;-55
2022/01/15 06:55:02;;;;;;;;;;;6.20;99.90;;;;;;5145880;27;20014;-56
2022/01/15 06:57:28;;;;;;;;;;;6.20;99.90;;;;;;5137617;27;19948;-56
2022/01/15 06:59:53;;;;;;;;;;;6.10;99.90;;;;;;5139306;27;19927;-56
2022/01/15 07:02:19;;;;;;;;;;;6.20;99.90;;;;;;5145208;27;19981;-56
2022/01/15 07:04:45;;;;;;;;;;;6.40;99.90;;;;;;5146138;27;20392;-56
2022/01/15 07:07:11;;;;;;;;;;;6.20;99.90;;;;;;5135397;27;19935;-56
2022/01/15 07:09:37;;;;;;;;;;;6.20;99.90;;;;;;5139373;27;20285;-57
2022/01/15 07:12:03;;;;;;;;;;;6.10;99.90;;;;;;5137976;27;20361;-57
2022/01/15 07:14:29;;;;;;;;;;;6.10;99.90;;;;;;5134051;27;19927;-56
2022/01/15 07:16:54;;;;;;;;;;;6.10;99.90;;;;;;5146756;27;20403;-56
2022/01/15 07:19:20;;;;;;;;;;;6.10;99.90;;;;;;5136821;27;19979;-56
2022/01/15 07:21:47;;;;;;;;;;;6.10;99.90;;;;;;5142732;27;20025;-56
2022/01/15 07:24:13;;;;;;;;;;;6.60;99.90;;;;;;5145256;27;19938;-59
2022/01/15 07:26:39;;;;;;;;;;;6.10;99.90;;;;;;5135001;27;19934;-56
2022/01/15 07:29:07;;;;;;;;;;;6.10;99.90;;;;;;5145655;27;19927;-56
2022/01/15 07:31:33;;;;;;;;;;;6.50;99.90;;;;;;5129877;27;19927;-55
2022/01/15 07:33:58;;;;;;;;;;;6.10;99.90;;;;;;5140609;27;19931;-55
2022/01/15 07:36:24;;;;;;;;;;;6.70;99.90;;;;;;5131567;27;20281;-55
2022/01/15 07:38:49;;;;;;;;;;;6.10;99.90;;;;;;5146253;27;19992;-56
2022/01/15 07:41:15;;;;;;;;;;;6.30;99.90;;;;;;5141140;27;19935;-56
2022/01/15 07:43:42;;;;;;;;;;;6.00;99.90;;;;;;5132327;27;19934;-56
2022/01/15 07:46:07;;;;;;;;;;;6.40;99.90;;;;;;5142045;27;19966;-56
2022/01/15 07:48:33;;;;;;;;;;;6.00;99.90;;;;;;5132305;27;20019;-58
2022/01/15 07:50:59;;;;;;;;;;;6.30;99.90;;;;;;5135188;27;20037;-56
2022/01/15 07:53:24;;;;;;;;;;;6.10;99.90;;;;;;5140573;27;19939;-57
2022/01/15 07:55:50;;;;;;;;;;;6.10;99.90;;;;;;5138165;27;19934;-57
2022/01/15 07:58:15;;;;;;;;;;;6.10;99.90;;;;;;5139156;27;20347;-56
2022/01/15 08:00:41;;;;;;;;;;;6.10;99.90;;;;;;5134253;27;19926;-56
2022/01/15 08:03:07;;;;;;;;;;;6.00;99.90;;;;;;5129128;27;20277;-59
2022/01/15 08:05:33;;;;;;;;;;;6.10;99.90;;;;;;5132354;27;20021;-57
2022/01/15 08:07:59;;;;;;;;;;;5.90;99.90;;;;;;5134320;27;20385;-57
2022/01/15 08:10:24;;;;;;;;;;;5.90;99.90;;;;;;5144469;27;19931;-56
2022/01/15 08:12:50;;;;;;;;;;;5.90;99.90;;;;;;5131970;27;20056;-57
2022/01/15 08:15:16;;;;;;;;;;;6.00;99.90;;;;;;5134772;27;20075;-56
2022/01/15 08:17:42;;;;;;;;;;;6.00;99.90;;;;;;5138091;27;20560;-57
2022/01/15 08:20:08;;;;;;;;;;;6.10;99.90;;;;;;5131480;27;19983;-57
2022/01/15 08:22:34;;;;;;;;;;;6.00;99.90;;;;;;5144063;27;19927;-56
2022/01/15 08:24:59;;;;;;;;;;;6.00;99.90;;;;;;5129793;27;20420;-60
2022/01/15 08:27:25;;;;;;;;;;;6.10;99.90;;;;;;5140285;27;19941;-60
2022/01/15 08:29:50;;;;;;;;;;;6.20;99.90;;;;;;5138077;27;19927;-57
2022/01/15 08:32:16;;;;;;;;;;;6.00;99.90;;;;;;5134204;27;19939;-60
2022/01/15 08:34:43;;;;;;;;;;;6.10;99.90;;;;;;5145341;27;20046;-59
2022/01/15 08:37:09;;;;;;;;;;;6.10;99.90;;;;;;5133845;27;20384;-57
2022/01/15 08:39:35;;;;;;;;;;;6.10;99.90;;;;;;5144816;27;19927;-59
2022/01/15 08:42:02;;;;;;;;;;;6.50;99.90;;;;;;5135499;27;19928;-57
2022/01/15 08:44:28;;;;;;;;;;;6.20;99.90;;;;;;5128053;27;19927;-56
2022/01/15 08:46:53;;;;;;;;;;;6.20;99.90;;;;;;5144942;27;19954;-58
2022/01/15 08:49:19;;;;;;;;;;;6.20;99.90;;;;;;5128754;27;19949;-60
2022/01/15 08:51:45;;;;;;;;;;;6.80;99.90;;;;;;5137911;27;20276;-56
2022/01/15 08:54:10;;;;;;;;;;;6.20;99.90;;;;;;5134999;27;19927;-60
2022/01/15 08:56:36;;;;;;;;;;;6.30;99.90;;;;;;5127987;27;20421;-58
2022/01/15 08:59:05;;;;;;;;;;;6.40;99.90;;;;;;5128456;27;20460;-56
2022/01/15 09:01:31;;;;;;;;;;;6.30;99.90;;;;;;5136715;27;19927;-55
2022/01/15 09:03:57;;;;;;;;;;;6.40;99.90;;;;;;5147779;27;19951;-56
2022/01/15 09:06:23;;;;;;;;;;;6.40;99.90;;;;;;5133469;27;19927;-56
2022/01/15 09:08:49;;;;;;;;;;;6.40;99.90;;;;;;5130921;27;19928;-56
2022/01/15 09:11:15;;;;;;;;;;;6.40;99.90;;;;;;5131972;27;19927;-58
2022/01/15 09:13:41;;;;;;;;;;;6.50;99.90;;;;;;5130939;27;19948;-56
2022/01/15 09:16:06;;;;;;;;;;;6.50;99.90;;;;;;5135462;27;19927;-56
2022/01/15 09:18:32;;;;;;;;;;;6.50;99.90;;;;;;5124649;27;20304;-64
2022/01/15 09:20:57;;;;;;;;;;;6.50;99.90;;;;;;5143949;27;19952;-63
2022/01/15 09:23:23;;;;;;;;;;;6.40;99.90;;;;;;5131472;27;19931;-61
2022/01/15 09:25:50;;;;;;;;;;;6.50;99.90;;;;;;5136474;27;20364;-56
2022/01/15 09:30:59;;;;;;;;;;;6.40;99.90;;;;;;5142055;27;19951;-55
2022/01/15 09:33:25;;;;;;;;;;;7.90;99.90;;;;;;5125664;27;20372;-56
2022/01/15 09:35:51;;;;;;;;;;;6.30;99.90;;;;;;5127487;27;19927;-57
2022/01/15 09:38:16;;;;;;;;;;;6.30;99.90;;;;;;5135394;27;19931;-56
2022/01/15 09:40:42;;;;;;;;;;;6.40;99.90;;;;;;5135953;27;20054;-56
2022/01/15 09:43:09;;;;;;;;;;;6.50;99.90;;;;;;5132717;27;20388;-57
2022/01/15 09:45:35;;;;;;;;;;;6.50;99.90;;;;;;5138646;27;19928;-56
2022/01/15 09:48:02;;;;;;;;;;;6.60;99.90;;;;;;5140064;27;20460;-57
2022/01/15 09:50:29;;;;;;;;;;;6.60;99.90;;;;;;5131555;27;19963;-57
2022/01/15 09:52:55;;;;;;;;;;;6.50;99.90;;;;;;5141861;27;20009;-60
2022/01/15 09:55:22;;;;;;;;;;;6.60;99.90;;;;;;5141510;27;20399;-56
2022/01/15 09:57:48;;;;;;;;;;;6.60;99.90;;;;;;5138631;27;19927;-55
2022/01/15 10:00:15;;;;;;;;;;;6.60;99.90;;;;;;5133727;27;19977;-56
2022/01/15 10:02:42;;;;;;;;;;;6.70;99.90;;;;;;5145426;27;19927;-56
2022/01/15 10:05:08;;;;;;;;;;;6.70;99.90;;;;;;5128446;27;19927;-56
2022/01/15 10:07:33;;;;;;;;;;;6.70;99.90;;;;;;5132799;27;19934;-56
2022/01/15 10:10:15;;;;;;;;;;;6.90;99.90;;;;;;5127978;27;19927;-58
2022/01/15 10:12:43;;;;;;;;;;;6.60;99.90;;;;;;5128284;27;19927;-56
2022/01/15 10:15:09;;;;;;;;;;;6.60;99.90;;;;;;5128544;27;19935;-57
2022/01/15 10:17:36;;;;;;;;;;;6.50;99.90;;;;;;5141131;27;20001;-56
2022/01/15 10:20:04;;;;;;;;;;;6.60;99.90;;;;;;5139494;27;20018;-56
2022/01/15 10:22:32;;;;;;;;;;;6.60;99.90;;;;;;5127867;27;19974;-57
2022/01/15 10:24:59;;;;;;;;;;;6.50;99.90;;;;;;5129015;27;19933;-56
2022/01/15 10:27:32;;;;;;;;;;;6.70;99.90;;;;;;5127975;27;19934;-56
2022/01/15 10:29:57;;;;;;;;;;;6.70;99.90;;;;;;5139225;27;19927;-56
2022/01/15 10:32:25;;;;;;;;;;;6.70;99.90;;;;;;5131717;27;20047;-57
2022/01/15 10:34:51;;;;;;;;;;;6.70;99.90;;;;;;5143952;27;20350;-58
2022/01/15 10:37:18;;;;;;;;;;;6.60;99.90;;;;;;5132895;27;19934;-58
2022/01/15 10:39:53;;;;;;;;;;;6.60;99.90;;;;;;5138884;27;19927;-56
2022/01/15 10:42:23;;;;;;;;;;;6.60;99.90;;;;;;5131560;27;19956;-57
2022/01/15 10:44:49;;;;;;;;;;;6.60;99.90;;;;;;5126459;27;19975;-58
2022/01/15 10:47:16;;;;;;;;;;;6.60;99.90;;;;;;5126688;27;20361;-57
2022/01/15 10:49:42;;;;;;;;;;;6.50;99.90;;;;;;5125878;27;19939;-56
2022/01/15 10:52:10;;;;;;;;;;;6.60;99.90;;;;;;5131153;27;19941;-58
2022/01/15 10:54:54;;;;;;;;;;;6.60;99.90;;;;;;5127743;27;20266;-60
2022/01/15 10:57:21;;;;;;;;;;;6.70;99.90;;;;;;5140133;27;19927;-56
2022/01/15 11:00:06;;;;;;;;;;;6.80;99.90;;;;;;5137795;27;19931;-58
2022/01/15 11:02:31;;;;;;;;;;;6.80;99.90;;;;;;5142449;27;19933;-60
2022/01/15 11:04:57;;;;;;;;;;;6.60;99.90;;;;;;5135106;27;19927;-58
2022/01/15 11:07:22;;;;;;;;;;;6.60;99.90;;;;;;5139057;27;19927;-57
2022/01/15 11:09:50;;;;;;;;;;;6.60;99.90;;;;;;5130042;27;20014;-60
2022/01/15 11:12:18;;;;;;;;;;;6.70;99.90;;;;;;5135079;27;19935;-60
2022/01/15 11:14:43;;;;;;;;;;;6.70;99.90;;;;;;5132286;27;19927;-57
2022/01/15 11:17:09;;;;;;;;;;;5.20;99.90;;;;;;5130553;27;19934;-59
2022/01/15 11:19:35;;;;;;;;;;;6.50;99.90;;;;;;5145427;27;19927;-60
2022/01/15 11:22:02;;;;;;;;;;;7.30;99.90;;;;;;5134219;27;19934;-60
2022/01/15 11:24:27;;;;;;;;;;;6.70;99.90;;;;;;5130387;27;19931;-60
2022/01/15 11:26:58;;;;;;;;;;;6.70;99.90;;;;;;5127644;27;20421;-59
2022/01/15 11:29:25;;;;;;;;;;;6.60;99.90;;;;;;5132842;27;19927;-56
2022/01/15 11:31:53;;;;;;;;;;;6.60;99.90;;;;;;5130462;27;19927;-56
2022/01/15 11:34:23;;;;;;;;;;;6.80;99.90;;;;;;5129675;27;20357;-56
2022/01/15 11:36:49;;;;;;;;;;;8.40;99.90;;;;;;5142442;27;20475;-57
2022/01/15 11:39:18;;;;;;;;;;;6.60;99.90;;;;;;5132035;27;20777;-56
2022/01/15 11:41:45;;;;;;;;;;;6.60;99.90;;;;;;5136738;27;19972;-57
2022/01/15 11:44:10;;;;;;;;;;;6.50;99.90;;;;;;5138509;27;19927;-56
2022/01/15 11:46:41;;;;;;;;;;;6.50;99.90;;;;;;5140710;27;19951;-56
2022/01/15 11:49:25;;;;;;;;;;;6.50;99.90;;;;;;5139907;27;20791;-56
2022/01/15 11:51:51;;;;;;;;;;;6.60;99.90;;;;;;5135157;27;20308;-56
2022/01/15 11:54:17;;;;;;;;;;;6.60;99.90;;;;;;5139359;27;20005;-57
2022/01/15 11:56:43;;;;;;;;;;;6.60;99.90;;;;;;5136608;27;20464;-57
2022/01/15 11:59:28;;;;;;;;;;;6.60;99.90;;;;;;5140100;27;19934;-56
2022/01/15 12:01:57;;;;;;;;;;;6.60;99.90;;;;;;5126115;27;20319;-56
2022/01/15 12:04:25;;;;;;;;;;;6.50;99.90;;;;;;5138002;27;20274;-56
2022/01/15 12:07:09;;;;;;;;;;;6.50;99.90;;;;;;5129883;27;19927;-56
2022/01/15 12:09:41;;;;;;;;;;;6.50;99.90;;;;;;5128168;27;19981;-57
2022/01/15 12:12:28;;;;;;;;;;;6.30;99.90;;;;;;5126341;27;20022;-58
2022/01/15 12:14:57;;;;;;;;;;;6.40;99.90;;;;;;5136921;27;19962;-56
2022/01/15 12:17:27;;;;;;;;;;;6.50;99.90;;;;;;5132261;27;19933;-56
2022/01/15 12:19:53;;;;;;;;;;;7.90;99.90;;;;;;5131285;27;19956;-55
2022/01/15 12:22:33;;;;;;;;;;;6.50;99.90;;;;;;5132376;27;19927;-56
2022/01/15 12:24:59;;;;;;;;;;;6.40;99.90;;;;;;5129695;27;19926;-56
2022/01/15 12:27:29;;;;;;;;;;;6.60;99.90;;;;;;5137444;27;19950;-58
2022/01/15 12:30:00;;;;;;;;;;;6.60;99.90;;;;;;5136502;27;20347;-55
2022/01/15 12:32:29;;;;;;;;;;;6.60;99.90;;;;;;5128548;27;20336;-56
2022/01/15 12:34:56;;;;;;;;;;;6.50;99.90;;;;;;5129760;27;19930;-60
2022/01/15 12:37:22;;;;;;;;;;;6.60;99.90;;;;;;5137942;27;19927;-57
2022/01/15 12:39:48;;;;;;;;;;;6.60;99.90;;;;;;5129199;27;19927;-56
2022/01/15 12:42:14;;;;;;;;;;;6.60;99.90;;;;;;5130933;27;19931;-56
2022/01/15 12:44:46;;;;;;;;;;;6.50;99.90;;;;;;5136551;27;20356;-57
2022/01/15 12:47:13;;;;;;;;;;;6.40;99.90;;;;;;5138645;27;19977;-57
2022/01/15 12:49:40;;;;;;;;;;;6.30;99.90;;;;;;5125435;27;20200;-58
2022/01/15 12:52:14;;;;;;;;;;;6.30;99.90;;;;;;5138352;27;19927;-56
2022/01/15 12:54:40;;;;;;;;;;;6.20;99.90;;;;;;5128960;27;19928;-56
2022/01/15 12:57:05;;;;;;;;;;;6.30;99.90;;;;;;5144204;27;20288;-57
2022/01/15 12:59:33;;;;;;;;;;;6.40;99.90;;;;;;5135348;27;20023;-59
2022/01/15 13:02:00;;;;;;;;;;;6.30;99.90;;;;;;5135946;27;19927;-59
2022/01/15 13:04:26;;;;;;;;;;;6.30;99.90;;;;;;5129421;27;19931;-56
2022/01/15 13:06:58;;;;;;;;;;;6.20;99.90;;;;;;5131115;27;19927;-59
2022/01/15 13:09:37;;;;;;;;;;;6.20;99.90;;;;;;5125823;27;20341;-56
2022/01/15 13:12:03;;;;;;;;;;;6.20;99.90;;;;;;5138191;27;19934;-57
2022/01/15 13:14:35;;;;;;;;;;;6.20;99.90;;;;;;5132201;27;19935;-60
2022/01/15 13:17:01;;;;;;;;;;;6.20;99.90;;;;;;5133486;27;20388;-56
2022/01/15 13:19:35;;;;;;;;;;;6.30;99.90;;;;;;5140704;27;19932;-56
2022/01/15 13:22:01;;;;;;;;;;;6.40;99.90;;;;;;5134983;27;19992;-57
2022/01/15 13:24:29;;;;;;;;;;;6.30;99.90;;;;;;5141493;27;20055;-56
2022/01/15 13:26:57;;;;;;;;;;;6.20;99.90;;;;;;5135778;27;19935;-56
2022/01/15 13:29:35;;;;;;;;;;;6.30;99.90;;;;;;5135838;27;19976;-56
2022/01/15 13:32:01;;;;;;;;;;;6.20;99.90;;;;;;5132785;27;19927;-58
2022/01/15 13:34:29;;;;;;;;;;;6.10;99.90;;;;;;5143365;27;20296;-56
2022/01/15 13:37:05;;;;;;;;;;;6.10;99.90;;;;;;5128797;27;19946;-56
2022/01/15 13:39:30;;;;;;;;;;;6.10;99.90;;;;;;5142576;27;19927;-56
2022/01/15 13:41:56;;;;;;;;;;;6.10;99.90;;;;;;5132479;27;19927;-56
2022/01/15 13:44:23;;;;;;;;;;;6.10;99.90;;;;;;5128192;27;19933;-56
2022/01/15 13:46:50;;;;;;;;;;;6.10;99.90;;;;;;5139530;27;20017;-57
2022/01/15 13:49:20;;;;;;;;;;;6.00;99.90;;;;;;5128625;27;20454;-59
2022/01/15 13:54:34;;;;;;;;;;;6.00;99.90;;;;;;5134199;27;19952;-57
2022/01/15 13:57:02;;;;;;;;;;;6.10;99.90;;;;;;5131427;27;20582;-56
2022/01/15 13:59:28;;;;;;;;;;;6.00;99.90;;;;;;5141849;27;19926;-57
2022/01/15 14:01:56;;;;;;;;;;;6.50;99.90;;;;;;5146672;27;20516;-58
2022/01/15 14:04:21;;;;;;;;;;;6.00;99.90;;;;;;5144145;27;19934;-56
2022/01/15 14:06:47;;;;;;;;;;;6.10;99.90;;;;;;5136027;27;19928;-57
2022/01/15 14:09:15;;;;;;;;;;;6.10;99.90;;;;;;5141436;27;20011;-59
2022/01/15 14:12:00;;;;;;;;;;;6.00;99.90;;;;;;5135794;27;20394;-58
2022/01/15 14:14:26;;;;;;;;;;;6.00;99.90;;;;;;5133571;27;20058;-56
2022/01/15 14:16:52;;;;;;;;;;;5.90;99.90;;;;;;5132613;27;20331;-60
2022/01/15 14:21:54;;;;;;;;;;;5.80;99.90;;;;;;5141620;27;19927;-56
2022/01/15 14:24:21;;;;;;;;;;;6.20;99.90;;;;;;5139801;27;19927;-57
2022/01/15 14:26:48;;;;;;;;;;;5.80;99.90;;;;;;5135579;27;19938;-56
2022/01/15 14:29:14;;;;;;;;;;;5.90;99.90;;;;;;5121718;27;19942;-56
2022/01/15 14:31:39;;;;;;;;;;;5.80;99.90;;;;;;5134744;27;19958;-57
2022/01/15 14:34:05;;;;;;;;;;;5.70;99.90;;;;;;5138872;27;19927;-58
2022/01/15 14:36:31;;;;;;;;;;;5.70;99.90;;;;;;5130799;27;19974;-56
2022/01/15 14:39:03;;;;;;;;;;;5.70;99.90;;;;;;5135126;27;19935;-56
2022/01/15 14:41:29;;;;;;;;;;;6.20;99.90;;;;;;5134891;27;19927;-60
2022/01/15 14:43:54;;;;;;;;;;;5.70;99.90;;;;;;5142495;27;19991;-60
2022/01/15 14:46:20;;;;;;;;;;;5.70;99.90;;;;;;5132488;27;19971;-60
2022/01/15 14:48:46;;;;;;;;;;;5.70;99.90;;;;;;5143691;27;19994;-57
2022/01/15 14:51:16;;;;;;;;;;;5.70;99.90;;;;;;5130163;27;19933;-58
2022/01/15 14:53:42;;;;;;;;;;;5.70;99.90;;;;;;5138336;27;20167;-59
2022/01/15 14:56:09;;;;;;;;;;;5.70;99.90;;;;;;5139628;27;19977;-58
2022/01/15 14:58:34;;;;;;;;;;;5.70;99.90;;;;;;5130239;27;19932;-57
2022/01/15 15:01:00;;;;;;;;;;;5.70;99.90;;;;;;5133649;27;19933;-57
2022/01/15 15:03:25;;;;;;;;;;;5.60;99.90;;;;;;5126238;27;20376;-58